createdAt,value
2022-12-31T00:00:45.712Z,15.3
2022-12-31T00:06:21.180Z,15.2
2022-12-31T00:11:57.917Z,15.2
2022-12-31T00:17:35.185Z,15.2
2022-12-31T00:23:10.100Z,15.2
2022-12-31T00:28:45.237Z,15.2
2022-12-31T00:34:23.546Z,15.1
2022-12-31T00:40:07.693Z,15
2022-12-31T00:45:45.620Z,15
2022-12-31T00:51:22.099Z,14.9
2022-12-31T00:57:07.326Z,14.9
2022-12-31T01:03:01.064Z,15
2022-12-31T01:08:41.436Z,15.1
2022-12-31T01:14:16.740Z,15.1
2022-12-31T01:19:56.172Z,15.1
2022-12-31T01:25:31.498Z,14.9
2022-12-31T01:31:27.951Z,14.8
2022-12-31T01:37:04.651Z,14.9
2022-12-31T01:42:40.028Z,15
2022-12-31T01:48:36.920Z,15
2022-12-31T01:54:09.766Z,14.8
2022-12-31T01:59:44.634Z,14.7
2022-12-31T02:05:41.553Z,14.6
2022-12-31T02:11:17.452Z,14.6
2022-12-31T02:16:52.243Z,14.6
2022-12-31T02:22:52.166Z,14.6
2022-12-31T02:28:33.367Z,14.7
2022-12-31T02:34:18.240Z,14.7
2022-12-31T02:40:03.837Z,14.5
2022-12-31T02:45:40.167Z,14.4
2022-12-31T02:51:15.159Z,14.3
2022-12-31T02:56:50.536Z,14.4
2022-12-31T03:02:26.118Z,14.3
2022-12-31T03:08:02.962Z,14.3
2022-12-31T03:14:00.542Z,14.2
2022-12-31T03:20:27.430Z,14.2
2022-12-31T03:26:03.257Z,14.2
2022-12-31T03:31:38.488Z,14.3
2022-12-31T03:37:42.161Z,14.4
2022-12-31T03:43:18.594Z,14.4
2022-12-31T03:49:22.471Z,14.4
2022-12-31T03:54:55.869Z,14.3
2022-12-31T04:00:33.251Z,14.2
2022-12-31T04:06:09.530Z,14.2
2022-12-31T04:11:44.695Z,14.2
2022-12-31T04:17:31.101Z,14.1
2022-12-31T04:23:16.317Z,14.1
2022-12-31T04:28:51.640Z,14
2022-12-31T04:34:27.934Z,14
2022-12-31T04:40:15.563Z,14.1
2022-12-31T04:45:50.986Z,14.3
2022-12-31T04:51:28.241Z,14.3
2022-12-31T04:57:12.867Z,14.2
2022-12-31T05:02:48.578Z,14.1
2022-12-31T05:08:29.439Z,14.1
2022-12-31T05:14:25.878Z,14
2022-12-31T05:20:01.509Z,14
2022-12-31T05:25:36.965Z,14
2022-12-31T05:31:12.382Z,14.1
2022-12-31T05:36:48.791Z,14.1
2022-12-31T05:42:24.271Z,14
2022-12-31T05:48:21.740Z,14
2022-12-31T05:53:55.157Z,14
2022-12-31T05:59:32.230Z,13.9
2022-12-31T06:05:18.599Z,13.9
2022-12-31T06:11:02.739Z,13.9
2022-12-31T06:16:38.010Z,13.9
2022-12-31T06:22:41.509Z,13.9
2022-12-31T06:28:20.668Z,13.9
2022-12-31T06:33:56.113Z,14
2022-12-31T06:39:33.876Z,14
2022-12-31T06:45:30.601Z,14
2022-12-31T06:51:05.843Z,13.8
2022-12-31T06:57:24.833Z,14.1
2022-12-31T07:03:01.113Z,14.6
2022-12-31T07:08:37.200Z,14.2
2022-12-31T07:14:28.483Z,13.6
2022-12-31T07:20:11.326Z,13.9
2022-12-31T07:25:47.671Z,12.9
2022-12-31T07:31:45.028Z,13.3
2022-12-31T07:37:36.735Z,13.2
2022-12-31T07:43:42.274Z,13.1
2022-12-31T07:49:31.618Z,13.1
2022-12-31T07:55:06.452Z,13.5
2022-12-31T08:00:52.126Z,14.2
2022-12-31T08:06:27.865Z,12.9
2022-12-31T08:12:10.387Z,13
2022-12-31T08:17:45.724Z,13.9
2022-12-31T08:23:21.355Z,14.1
2022-12-31T08:29:00.990Z,13.8
2022-12-31T08:34:51.012Z,14.3
2022-12-31T08:43:56.638Z,14.7
2022-12-31T08:49:45.307Z,14.7
2022-12-31T08:55:24.677Z,14.6
2022-12-31T09:00:59.733Z,14.1
2022-12-31T09:07:11.658Z,14.3
2022-12-31T09:13:07.556Z,14.5
2022-12-31T09:18:48.948Z,14.8
2022-12-31T09:24:33.008Z,14.6
2022-12-31T09:30:13.634Z,14.3
2022-12-31T09:37:27.566Z,15
2022-12-31T09:43:03.256Z,15.1
2022-12-31T09:48:53.127Z,15.2
2022-12-31T09:54:45.225Z,15.3
2022-12-31T10:00:54.807Z,15.8
2022-12-31T10:06:30.796Z,15.8
2022-12-31T10:12:05.761Z,15.9
2022-12-31T10:19:12.845Z,14.9
2022-12-31T10:24:58.353Z,15.7
2022-12-31T10:30:41.802Z,15.4
2022-12-31T10:36:17.566Z,15.5
2022-12-31T10:41:52.572Z,16
2022-12-31T10:48:03.637Z,16
2022-12-31T10:53:37.883Z,16.1
2022-12-31T10:59:12.995Z,16.4
2022-12-31T11:04:48.285Z,16.8
2022-12-31T11:10:33.670Z,16.4
2022-12-31T11:16:09.623Z,16.5
2022-12-31T11:22:11.770Z,16.6
2022-12-31T11:28:07.502Z,16.8
2022-12-31T11:34:39.623Z,16.6
2022-12-31T11:40:14.487Z,17.2
2022-12-31T11:46:41.653Z,17.1
2022-12-31T11:52:19.637Z,17.3
2022-12-31T11:58:23.390Z,17
2022-12-31T12:04:09.300Z,16.9
2022-12-31T12:09:45.095Z,16.7
2022-12-31T12:15:20.490Z,16.1
2022-12-31T12:21:08.263Z,16.1
2022-12-31T12:26:46.979Z,16.2
2022-12-31T12:32:25.127Z,16.2
2022-12-31T12:38:01.521Z,16.1
2022-12-31T12:43:44.349Z,16.2
2022-12-31T12:49:47.174Z,16.2
2022-12-31T12:55:19.876Z,16.4
2022-12-31T13:01:19.064Z,16.6
2022-12-31T13:06:56.966Z,16.7
2022-12-31T13:13:21.911Z,16.8
2022-12-31T13:19:01.664Z,16.6
2022-12-31T13:24:42.381Z,16.2
2022-12-31T13:30:18.177Z,15.9
2022-12-31T13:36:05.740Z,15.9
2022-12-31T13:41:42.193Z,16.5
2022-12-31T13:47:17.458Z,16.6
2022-12-31T13:52:57.598Z,16.5
2022-12-31T13:58:36.925Z,16.4
2022-12-31T14:04:12.454Z,16.3
2022-12-31T14:09:51.543Z,16.2
2022-12-31T14:15:28.242Z,16.1
2022-12-31T14:21:29.976Z,16
2022-12-31T14:27:23.286Z,16.5
2022-12-31T14:32:58.948Z,16.3
2022-12-31T14:38:55.902Z,16.6
2022-12-31T14:44:42.738Z,16.6
2022-12-31T14:50:17.901Z,16.6
2022-12-31T14:56:08.662Z,16.6
2022-12-31T15:02:07.025Z,16.8
2022-12-31T15:07:46.748Z,16.9
2022-12-31T15:13:23.110Z,17.1
2022-12-31T15:19:06.829Z,17.4
2022-12-31T15:24:43.329Z,17.1
2022-12-31T15:30:25.018Z,17
2022-12-31T15:36:00.639Z,16.5
2022-12-31T15:48:27.396Z,15.9
2022-12-31T15:54:02.653Z,15.7
2022-12-31T15:59:37.993Z,15.6
2022-12-31T16:05:28.600Z,15.3
2022-12-31T16:11:06.053Z,14.9
2022-12-31T16:16:41.417Z,15
2022-12-31T16:22:24.016Z,15
2022-12-31T16:28:02.297Z,14.9
2022-12-31T16:33:38.223Z,14.8
2022-12-31T16:39:13.501Z,14.6
2022-12-31T16:44:49.834Z,14.1
2022-12-31T16:50:25.490Z,14.4
2022-12-31T16:56:04.657Z,14
2022-12-31T17:01:53.036Z,13.6
2022-12-31T17:07:29.550Z,14.2
2022-12-31T17:13:27.508Z,14.3
2022-12-31T17:19:06.730Z,14.1
2022-12-31T17:24:42.260Z,14
2022-12-31T17:30:18.016Z,13.9
2022-12-31T17:35:53.335Z,13.9
2022-12-31T17:41:52.338Z,14
2022-12-31T17:47:31.179Z,14.1
2022-12-31T17:53:18.026Z,13.9
2022-12-31T17:58:53.221Z,13.9
2022-12-31T18:04:28.946Z,13.9
2022-12-31T18:10:07.280Z,13.9
2022-12-31T18:15:45.714Z,13.9
2022-12-31T18:21:23.965Z,14
2022-12-31T18:26:59.522Z,14.1
2022-12-31T18:32:34.594Z,14.1
2022-12-31T18:38:10.580Z,14.1
2022-12-31T18:43:59.423Z,14.1
2022-12-31T18:49:45.467Z,14.2
2022-12-31T18:55:25.364Z,14.3
2022-12-31T19:01:03.912Z,14.3
2022-12-31T19:06:41.799Z,14.4
2022-12-31T19:12:17.181Z,14.4
2022-12-31T19:18:29.566Z,14.4
2022-12-31T19:24:20.275Z,14.3
2022-12-31T19:30:05.795Z,14.3
2022-12-31T19:36:22.281Z,14.4
2022-12-31T19:42:32.230Z,14.4
2022-12-31T19:48:33.008Z,14.4
2022-12-31T19:54:06.218Z,14.5
2022-12-31T19:59:50.185Z,14.4
2022-12-31T20:05:25.844Z,14.4
2022-12-31T20:11:13.944Z,14.5
2022-12-31T20:16:49.862Z,14.4
2022-12-31T20:22:26.013Z,14.4
2022-12-31T20:28:02.034Z,14.5
2022-12-31T20:33:38.940Z,14.2
2022-12-31T20:39:38.781Z,13.8
2022-12-31T20:45:17.039Z,13.8
2022-12-31T20:51:06.832Z,13.7
2022-12-31T20:56:44.618Z,13.7
2022-12-31T21:02:41.249Z,13.9
2022-12-31T21:09:36.925Z,13.9
2022-12-31T21:15:13.162Z,13.6
2022-12-31T21:20:51.094Z,13.5
2022-12-31T21:26:26.433Z,13.6
2022-12-31T21:32:10.646Z,13.7
2022-12-31T21:37:57.797Z,13.7
2022-12-31T21:43:36.260Z,13.6
2022-12-31T21:49:35.894Z,13.4
2022-12-31T21:55:10.005Z,13.3
2022-12-31T22:01:21.719Z,13.3
2022-12-31T22:07:32.746Z,13.3
2022-12-31T22:13:58.344Z,13.4
2022-12-31T22:20:08.863Z,13.3
2022-12-31T22:26:04.482Z,13.3
2022-12-31T22:31:45.601Z,13.2
2022-12-31T22:37:54.733Z,13.1
2022-12-31T22:43:48.177Z,13.3
2022-12-31T22:49:58.847Z,13.2
2022-12-31T22:55:43.171Z,13.1
2022-12-31T23:01:27.871Z,13.3
2022-12-31T23:07:05.351Z,13.4
2022-12-31T23:12:41.039Z,13.5
2022-12-31T23:18:19.542Z,13.7
2022-12-31T23:24:03.104Z,13.6
2022-12-31T23:29:43.984Z,13.8
2022-12-31T23:35:27.143Z,14
2022-12-31T23:41:10.942Z,13.9
2022-12-31T23:47:08.440Z,13.8
2022-12-31T23:52:42.118Z,13.6
2022-12-31T23:58:18.621Z,13.4
